Terminal Aerodrome Forecast
Issued by NWS Sterling, VA

Current Version | Previous Version | Graphics & Text | Print | Product List | Glossary On
Versions: 1 2 3 4 5 6 7 8 9 10 11 12 13 14 15 16 17 18 19 20 21 22 23 24 25
000
FTUS41 KLWX 282216 AAB
TAFIAD
TAF AMD
KIAD 282216Z 2822/2924 32016G24KT P6SM BKN050
     FM290000 32012KT P6SM SCT090
     FM291100 32008KT P6SM SKC
     FM292000 24005KT P6SM FEW250
     FM292300 18005KT P6SM FEW250=

USA.gov is the U.S. government's official web portal to all federal, state and local government web resources and services.